sensor_id;sensor_type;location;lat;lon;timestamp;P1;durP1;ratioP1;P2;durP2;ratioP2
73382;SDS011;61600;48.126;11.542;2022-10-31T00:00:50;21.42;;;6.43;;
73382;SDS011;61600;48.126;11.542;2022-10-31T00:03:16;16.20;;;6.53;;
73382;SDS011;61600;48.126;11.542;2022-10-31T00:05:43;12.93;;;5.72;;
73382;SDS011;61600;48.126;11.542;2022-10-31T00:08:10;14.07;;;6.35;;
73382;SDS011;61600;48.126;11.542;2022-10-31T00:10:39;13.63;;;5.32;;
73382;SDS011;61600;48.126;11.542;2022-10-31T00:13:06;13.68;;;5.13;;
73382;SDS011;61600;48.126;11.542;2022-10-31T00:15:33;13.13;;;5.90;;
73382;SDS011;61600;48.126;11.542;2022-10-31T00:18:00;13.20;;;6.18;;
73382;SDS011;61600;48.126;11.542;2022-10-31T00:20:27;14.38;;;5.72;;
73382;SDS011;61600;48.126;11.542;2022-10-31T00:22:53;10.90;;;5.00;;
73382;SDS011;61600;48.126;11.542;2022-10-31T00:25:19;17.95;;;4.88;;
73382;SDS011;61600;48.126;11.542;2022-10-31T00:30:11;12.10;;;4.63;;
73382;SDS011;61600;48.126;11.542;2022-10-31T00:32:37;10.27;;;4.90;;
73382;SDS011;61600;48.126;11.542;2022-10-31T00:35:03;13.52;;;4.63;;
73382;SDS011;61600;48.126;11.542;2022-10-31T00:37:29;10.73;;;4.43;;
73382;SDS011;61600;48.126;11.542;2022-10-31T00:39:54;13.65;;;4.95;;
73382;SDS011;61600;48.126;11.542;2022-10-31T00:42:20;12.77;;;5.20;;
73382;SDS011;61600;48.126;11.542;2022-10-31T00:44:45;13.10;;;5.43;;
73382;SDS011;61600;48.126;11.542;2022-10-31T00:47:11;13.88;;;5.07;;
73382;SDS011;61600;48.126;11.542;2022-10-31T00:49:37;13.00;;;5.85;;
73382;SDS011;61600;48.126;11.542;2022-10-31T00:52:02;13.98;;;5.75;;
73382;SDS011;61600;48.126;11.542;2022-10-31T00:54:28;12.10;;;5.53;;
73382;SDS011;61600;48.126;11.542;2022-10-31T00:56:53;17.27;;;6.10;;
73382;SDS011;61600;48.126;11.542;2022-10-31T00:59:19;12.75;;;5.25;;
73382;SDS011;61600;48.126;11.542;2022-10-31T01:01:45;14.68;;;6.03;;
73382;SDS011;61600;48.126;11.542;2022-10-31T01:04:10;10.88;;;5.13;;
73382;SDS011;61600;48.126;11.542;2022-10-31T01:06:36;16.08;;;5.78;;
73382;SDS011;61600;48.126;11.542;2022-10-31T01:09:01;10.15;;;4.43;;
73382;SDS011;61600;48.126;11.542;2022-10-31T01:11:27;11.63;;;5.05;;
73382;SDS011;61600;48.126;11.542;2022-10-31T01:13:53;14.15;;;6.03;;
73382;SDS011;61600;48.126;11.542;2022-10-31T01:16:20;8.88;;;4.10;;
73382;SDS011;61600;48.126;11.542;2022-10-31T01:18:48;10.50;;;5.00;;
73382;SDS011;61600;48.126;11.542;2022-10-31T01:21:15;11.07;;;4.50;;
73382;SDS011;61600;48.126;11.542;2022-10-31T01:23:43;11.73;;;4.30;;
73382;SDS011;61600;48.126;11.542;2022-10-31T01:26:10;9.27;;;4.75;;
73382;SDS011;61600;48.126;11.542;2022-10-31T01:28:48;9.55;;;4.35;;
73382;SDS011;61600;48.126;11.542;2022-10-31T01:31:16;14.48;;;4.53;;
73382;SDS011;61600;48.126;11.542;2022-10-31T01:33:43;11.15;;;4.75;;
73382;SDS011;61600;48.126;11.542;2022-10-31T01:36:13;10.02;;;4.05;;
73382;SDS011;61600;48.126;11.542;2022-10-31T01:38:44;10.77;;;4.10;;
73382;SDS011;61600;48.126;11.542;2022-10-31T01:41:12;11.75;;;3.60;;
73382;SDS011;61600;48.126;11.542;2022-10-31T01:43:45;12.43;;;4.30;;
73382;SDS011;61600;48.126;11.542;2022-10-31T01:46:34;11.02;;;4.38;;
73382;SDS011;61600;48.126;11.542;2022-10-31T01:49:05;10.35;;;4.28;;
73382;SDS011;61600;48.126;11.542;2022-10-31T01:51:36;12.55;;;4.40;;
73382;SDS011;61600;48.126;11.542;2022-10-31T01:54:07;10.85;;;4.10;;
73382;SDS011;61600;48.126;11.542;2022-10-31T01:56:39;8.00;;;3.75;;
73382;SDS011;61600;48.126;11.542;2022-10-31T01:59:09;10.18;;;3.15;;
73382;SDS011;61600;48.126;11.542;2022-10-31T02:01:37;7.55;;;3.03;;
73382;SDS011;61600;48.126;11.542;2022-10-31T02:04:03;11.23;;;3.78;;
73382;SDS011;61600;48.126;11.542;2022-10-31T02:08:56;12.55;;;3.97;;
73382;SDS011;61600;48.126;11.542;2022-10-31T02:11:27;9.02;;;3.58;;
73382;SDS011;61600;48.126;11.542;2022-10-31T02:13:54;9.30;;;3.70;;
73382;SDS011;61600;48.126;11.542;2022-10-31T02:16:19;10.43;;;3.38;;
73382;SDS011;61600;48.126;11.542;2022-10-31T02:18:45;8.88;;;3.53;;
73382;SDS011;61600;48.126;11.542;2022-10-31T02:37:34;7.47;;;3.25;;
73382;SDS011;61600;48.126;11.542;2022-10-31T02:40:24;11.00;;;3.53;;
73382;SDS011;61600;48.126;11.542;2022-10-31T02:42:57;9.35;;;3.75;;
73382;SDS011;61600;48.126;11.542;2022-10-31T02:45:35;8.65;;;3.50;;
73382;SDS011;61600;48.126;11.542;2022-10-31T02:48:18;8.80;;;3.33;;
73382;SDS011;61600;48.126;11.542;2022-10-31T02:50:49;9.65;;;4.25;;
73382;SDS011;61600;48.126;11.542;2022-10-31T02:53:36;11.20;;;3.63;;
73382;SDS011;61600;48.126;11.542;2022-10-31T02:56:13;11.45;;;3.40;;
73382;SDS011;61600;48.126;11.542;2022-10-31T02:58:51;7.43;;;3.28;;
73382;SDS011;61600;48.126;11.542;2022-10-31T03:09:51;8.43;;;3.03;;
73382;SDS011;61600;48.126;11.542;2022-10-31T03:12:45;7.50;;;3.17;;
73382;SDS011;61600;48.126;11.542;2022-10-31T03:15:26;11.52;;;3.40;;
73382;SDS011;61600;48.126;11.542;2022-10-31T03:20:34;8.07;;;2.72;;
73382;SDS011;61600;48.126;11.542;2022-10-31T03:23:04;10.02;;;2.97;;
73382;SDS011;61600;48.126;11.542;2022-10-31T03:25:33;8.38;;;3.63;;
73382;SDS011;61600;48.126;11.542;2022-10-31T03:28:01;12.95;;;3.30;;
73382;SDS011;61600;48.126;11.542;2022-10-31T03:30:29;9.63;;;3.08;;
73382;SDS011;61600;48.126;11.542;2022-10-31T03:32:58;5.93;;;2.88;;
73382;SDS011;61600;48.126;11.542;2022-10-31T03:35:28;10.80;;;3.25;;
73382;SDS011;61600;48.126;11.542;2022-10-31T03:37:55;7.03;;;3.17;;
73382;SDS011;61600;48.126;11.542;2022-10-31T03:40:23;9.80;;;3.10;;
73382;SDS011;61600;48.126;11.542;2022-10-31T03:43:00;9.52;;;3.15;;
73382;SDS011;61600;48.126;11.542;2022-10-31T03:45:33;9.60;;;2.90;;
73382;SDS011;61600;48.126;11.542;2022-10-31T03:48:03;7.90;;;2.97;;
73382;SDS011;61600;48.126;11.542;2022-10-31T03:50:45;6.65;;;3.05;;
73382;SDS011;61600;48.126;11.542;2022-10-31T03:53:32;8.07;;;3.40;;
73382;SDS011;61600;48.126;11.542;2022-10-31T03:56:36;9.90;;;3.13;;
73382;SDS011;61600;48.126;11.542;2022-10-31T03:59:00;10.30;;;2.83;;
73382;SDS011;61600;48.126;11.542;2022-10-31T04:01:30;18.10;;;3.97;;
73382;SDS011;61600;48.126;11.542;2022-10-31T04:03:59;9.00;;;3.95;;
73382;SDS011;61600;48.126;11.542;2022-10-31T04:06:27;7.97;;;3.05;;
73382;SDS011;61600;48.126;11.542;2022-10-31T04:08:56;11.07;;;3.20;;
73382;SDS011;61600;48.126;11.542;2022-10-31T04:11:29;7.78;;;2.95;;
73382;SDS011;61600;48.126;11.542;2022-10-31T04:13:59;8.35;;;3.53;;
73382;SDS011;61600;48.126;11.542;2022-10-31T04:16:26;10.23;;;3.67;;
73382;SDS011;61600;48.126;11.542;2022-10-31T04:18:52;9.02;;;3.20;;
73382;SDS011;61600;48.126;11.542;2022-10-31T04:21:18;10.73;;;3.47;;
73382;SDS011;61600;48.126;11.542;2022-10-31T04:23:44;7.80;;;3.15;;
73382;SDS011;61600;48.126;11.542;2022-10-31T04:26:10;7.95;;;3.13;;
73382;SDS011;61600;48.126;11.542;2022-10-31T04:28:37;10.43;;;3.47;;
73382;SDS011;61600;48.126;11.542;2022-10-31T04:31:03;7.60;;;3.30;;
73382;SDS011;61600;48.126;11.542;2022-10-31T04:33:29;7.65;;;3.22;;
73382;SDS011;61600;48.126;11.542;2022-10-31T04:35:55;6.47;;;3.20;;
73382;SDS011;61600;48.126;11.542;2022-10-31T04:38:20;8.43;;;3.08;;
73382;SDS011;61600;48.126;11.542;2022-10-31T04:40:46;8.52;;;3.05;;
73382;SDS011;61600;48.126;11.542;2022-10-31T04:43:11;12.88;;;3.10;;
73382;SDS011;61600;48.126;11.542;2022-10-31T04:45:37;9.40;;;2.95;;
73382;SDS011;61600;48.126;11.542;2022-10-31T04:48:03;9.30;;;3.50;;
73382;SDS011;61600;48.126;11.542;2022-10-31T04:50:29;9.23;;;3.55;;
73382;SDS011;61600;48.126;11.542;2022-10-31T04:52:54;11.32;;;3.50;;
73382;SDS011;61600;48.126;11.542;2022-10-31T04:55:20;8.15;;;4.07;;
73382;SDS011;61600;48.126;11.542;2022-10-31T04:57:47;11.98;;;4.10;;
73382;SDS011;61600;48.126;11.542;2022-10-31T05:00:15;12.75;;;4.63;;
73382;SDS011;61600;48.126;11.542;2022-10-31T05:02:45;10.40;;;3.65;;
73382;SDS011;61600;48.126;11.542;2022-10-31T05:05:15;10.38;;;3.70;;
73382;SDS011;61600;48.126;11.542;2022-10-31T05:07:43;7.95;;;3.40;;
73382;SDS011;61600;48.126;11.542;2022-10-31T05:10:11;7.70;;;3.22;;
73382;SDS011;61600;48.126;11.542;2022-10-31T05:12:45;7.95;;;4.50;;
73382;SDS011;61600;48.126;11.542;2022-10-31T05:15:14;9.30;;;3.85;;
73382;SDS011;61600;48.126;11.542;2022-10-31T05:17:40;8.40;;;3.95;;
73382;SDS011;61600;48.126;11.542;2022-10-31T05:20:06;10.02;;;3.58;;
73382;SDS011;61600;48.126;11.542;2022-10-31T05:22:32;11.48;;;3.60;;
73382;SDS011;61600;48.126;11.542;2022-10-31T05:24:58;7.88;;;2.88;;
73382;SDS011;61600;48.126;11.542;2022-10-31T05:27:23;7.05;;;2.90;;
73382;SDS011;61600;48.126;11.542;2022-10-31T05:29:49;7.32;;;3.50;;
73382;SDS011;61600;48.126;11.542;2022-10-31T05:32:15;9.00;;;3.05;;
73382;SDS011;61600;48.126;11.542;2022-10-31T05:34:41;11.23;;;3.92;;
73382;SDS011;61600;48.126;11.542;2022-10-31T05:37:07;10.63;;;3.83;;
73382;SDS011;61600;48.126;11.542;2022-10-31T05:39:32;13.25;;;4.07;;
73382;SDS011;61600;48.126;11.542;2022-10-31T05:41:58;10.70;;;4.47;;
73382;SDS011;61600;48.126;11.542;2022-10-31T05:44:24;6.60;;;3.70;;
73382;SDS011;61600;48.126;11.542;2022-10-31T05:46:50;14.43;;;3.58;;
73382;SDS011;61600;48.126;11.542;2022-10-31T05:49:15;9.60;;;3.65;;
73382;SDS011;61600;48.126;11.542;2022-10-31T05:54:08;11.07;;;4.07;;
73382;SDS011;61600;48.126;11.542;2022-10-31T05:56:34;12.98;;;3.97;;
73382;SDS011;61600;48.126;11.542;2022-10-31T05:58:59;11.13;;;5.45;;
73382;SDS011;61600;48.126;11.542;2022-10-31T06:01:25;9.52;;;4.00;;
73382;SDS011;61600;48.126;11.542;2022-10-31T06:03:51;11.70;;;4.40;;
73382;SDS011;61600;48.126;11.542;2022-10-31T06:06:17;9.52;;;4.38;;
73382;SDS011;61600;48.126;11.542;2022-10-31T06:08:42;9.63;;;4.50;;
73382;SDS011;61600;48.126;11.542;2022-10-31T06:11:08;8.63;;;3.80;;
73382;SDS011;61600;48.126;11.542;2022-10-31T06:13:34;12.15;;;4.15;;
73382;SDS011;61600;48.126;11.542;2022-10-31T06:16:00;10.00;;;3.50;;
73382;SDS011;61600;48.126;11.542;2022-10-31T06:18:25;8.70;;;3.67;;
73382;SDS011;61600;48.126;11.542;2022-10-31T06:20:51;7.60;;;3.25;;
73382;SDS011;61600;48.126;11.542;2022-10-31T06:23:17;8.75;;;3.30;;
73382;SDS011;61600;48.126;11.542;2022-10-31T06:25:43;8.38;;;3.35;;
73382;SDS011;61600;48.126;11.542;2022-10-31T06:28:08;7.32;;;3.05;;
73382;SDS011;61600;48.126;11.542;2022-10-31T06:30:34;6.10;;;3.00;;
73382;SDS011;61600;48.126;11.542;2022-10-31T06:33:03;7.03;;;3.10;;
73382;SDS011;61600;48.126;11.542;2022-10-31T06:35:30;9.18;;;2.80;;
73382;SDS011;61600;48.126;11.542;2022-10-31T06:37:56;10.90;;;3.05;;
73382;SDS011;61600;48.126;11.542;2022-10-31T06:40:22;11.77;;;3.15;;
73382;SDS011;61600;48.126;11.542;2022-10-31T06:42:47;7.53;;;3.20;;
73382;SDS011;61600;48.126;11.542;2022-10-31T06:45:20;6.80;;;3.05;;
73382;SDS011;61600;48.126;11.542;2022-10-31T06:47:50;7.22;;;2.85;;
73382;SDS011;61600;48.126;11.542;2022-10-31T06:50:17;7.93;;;2.90;;
73382;SDS011;61600;48.126;11.542;2022-10-31T06:52:53;10.93;;;3.65;;
73382;SDS011;61600;48.126;11.542;2022-10-31T06:55:20;7.53;;;2.78;;
73382;SDS011;61600;48.126;11.542;2022-10-31T06:57:58;9.90;;;3.55;;
73382;SDS011;61600;48.126;11.542;2022-10-31T07:00:25;7.50;;;3.13;;
73382;SDS011;61600;48.126;11.542;2022-10-31T07:03:01;8.20;;;3.05;;
73382;SDS011;61600;48.126;11.542;2022-10-31T07:05:29;11.00;;;3.00;;
73382;SDS011;61600;48.126;11.542;2022-10-31T07:07:59;8.82;;;3.30;;
73382;SDS011;61600;48.126;11.542;2022-10-31T07:10:27;6.35;;;3.15;;
73382;SDS011;61600;48.126;11.542;2022-10-31T07:12:55;8.88;;;3.28;;
73382;SDS011;61600;48.126;11.542;2022-10-31T07:15:25;10.15;;;3.45;;
73382;SDS011;61600;48.126;11.542;2022-10-31T07:17:52;8.35;;;2.95;;
73382;SDS011;61600;48.126;11.542;2022-10-31T07:20:18;6.63;;;2.70;;
73382;SDS011;61600;48.126;11.542;2022-10-31T07:22:44;8.40;;;2.83;;
73382;SDS011;61600;48.126;11.542;2022-10-31T07:25:10;6.60;;;3.08;;
73382;SDS011;61600;48.126;11.542;2022-10-31T07:27:40;7.20;;;3.28;;
73382;SDS011;61600;48.126;11.542;2022-10-31T07:30:07;9.85;;;3.17;;
73382;SDS011;61600;48.126;11.542;2022-10-31T07:32:41;7.20;;;3.20;;
73382;SDS011;61600;48.126;11.542;2022-10-31T07:35:09;9.85;;;3.45;;
73382;SDS011;61600;48.126;11.542;2022-10-31T07:37:36;9.95;;;3.60;;
73382;SDS011;61600;48.126;11.542;2022-10-31T07:40:03;10.05;;;3.58;;
73382;SDS011;61600;48.126;11.542;2022-10-31T07:42:34;14.27;;;3.45;;
73382;SDS011;61600;48.126;11.542;2022-10-31T07:45:01;13.07;;;4.10;;
73382;SDS011;61600;48.126;11.542;2022-10-31T07:47:27;7.15;;;3.42;;
73382;SDS011;61600;48.126;11.542;2022-10-31T07:49:52;9.68;;;3.60;;
73382;SDS011;61600;48.126;11.542;2022-10-31T07:52:18;10.15;;;4.20;;
73382;SDS011;61600;48.126;11.542;2022-10-31T07:54:44;11.90;;;3.80;;
73382;SDS011;61600;48.126;11.542;2022-10-31T07:57:10;7.93;;;3.50;;
73382;SDS011;61600;48.126;11.542;2022-10-31T07:59:35;10.60;;;3.00;;
73382;SDS011;61600;48.126;11.542;2022-10-31T08:02:01;8.15;;;3.25;;
73382;SDS011;61600;48.126;11.542;2022-10-31T08:04:27;6.78;;;2.97;;
73382;SDS011;61600;48.126;11.542;2022-10-31T08:06:53;8.20;;;2.55;;
73382;SDS011;61600;48.126;11.542;2022-10-31T08:09:18;6.78;;;2.67;;
73382;SDS011;61600;48.126;11.542;2022-10-31T08:11:44;12.98;;;3.53;;
73382;SDS011;61600;48.126;11.542;2022-10-31T08:14:10;9.10;;;2.65;;
73382;SDS011;61600;48.126;11.542;2022-10-31T08:16:39;10.30;;;3.13;;
73382;SDS011;61600;48.126;11.542;2022-10-31T08:19:04;9.65;;;3.03;;
73382;SDS011;61600;48.126;11.542;2022-10-31T08:21:30;10.48;;;3.35;;
73382;SDS011;61600;48.126;11.542;2022-10-31T08:23:56;13.52;;;3.33;;
73382;SDS011;61600;48.126;11.542;2022-10-31T08:31:33;17.73;;;5.03;;
73382;SDS011;61600;48.126;11.542;2022-10-31T08:38:08;8.77;;;3.10;;
73382;SDS011;61600;48.126;11.542;2022-10-31T08:40:38;7.82;;;3.75;;
73382;SDS011;61600;48.126;11.542;2022-10-31T08:43:05;8.93;;;4.43;;
73382;SDS011;61600;48.126;11.542;2022-10-31T08:45:34;9.27;;;4.25;;
73382;SDS011;61600;48.126;11.542;2022-10-31T08:48:01;15.77;;;4.88;;
73382;SDS011;61600;48.126;11.542;2022-10-31T08:50:32;12.93;;;4.78;;
73382;SDS011;61600;48.126;11.542;2022-10-31T08:53:00;7.30;;;3.70;;
73382;SDS011;61600;48.126;11.542;2022-10-31T08:55:28;10.65;;;4.30;;
73382;SDS011;61600;48.126;11.542;2022-10-31T08:57:57;12.10;;;5.50;;
73382;SDS011;61600;48.126;11.542;2022-10-31T09:00:27;12.25;;;5.13;;
73382;SDS011;61600;48.126;11.542;2022-10-31T09:03:00;14.85;;;5.05;;
73382;SDS011;61600;48.126;11.542;2022-10-31T09:05:27;13.93;;;5.53;;
73382;SDS011;61600;48.126;11.542;2022-10-31T09:07:57;16.10;;;5.35;;
73382;SDS011;61600;48.126;11.542;2022-10-31T09:10:24;13.32;;;5.00;;
73382;SDS011;61600;48.126;11.542;2022-10-31T09:12:58;16.05;;;5.95;;
73382;SDS011;61600;48.126;11.542;2022-10-31T09:15:32;13.15;;;4.95;;
73382;SDS011;61600;48.126;11.542;2022-10-31T09:17:59;11.13;;;5.03;;
73382;SDS011;61600;48.126;11.542;2022-10-31T09:20:26;14.60;;;5.88;;
73382;SDS011;61600;48.126;11.542;2022-10-31T09:25:22;10.30;;;5.15;;
73382;SDS011;61600;48.126;11.542;2022-10-31T09:27:48;14.93;;;6.50;;
73382;SDS011;61600;48.126;11.542;2022-10-31T09:30:14;11.65;;;5.72;;
73382;SDS011;61600;48.126;11.542;2022-10-31T09:32:40;15.60;;;5.65;;
73382;SDS011;61600;48.126;11.542;2022-10-31T09:35:06;15.65;;;5.75;;
73382;SDS011;61600;48.126;11.542;2022-10-31T09:39:58;11.70;;;5.55;;
73382;SDS011;61600;48.126;11.542;2022-10-31T09:45:25;13.57;;;4.80;;
73382;SDS011;61600;48.126;11.542;2022-10-31T09:51:08;11.73;;;4.72;;
73382;SDS011;61600;48.126;11.542;2022-10-31T09:56:38;10.18;;;3.92;;
73382;SDS011;61600;48.126;11.542;2022-10-31T09:59:05;10.10;;;4.53;;
73382;SDS011;61600;48.126;11.542;2022-10-31T10:01:47;13.05;;;3.67;;
73382;SDS011;61600;48.126;11.542;2022-10-31T10:09:56;9.60;;;2.75;;
73382;SDS011;61600;48.126;11.542;2022-10-31T10:20:51;16.27;;;4.15;;
73382;SDS011;61600;48.126;11.542;2022-10-31T10:23:47;10.65;;;2.78;;
73382;SDS011;61600;48.126;11.542;2022-10-31T10:26:21;6.20;;;2.60;;
73382;SDS011;61600;48.126;11.542;2022-10-31T10:28:55;11.15;;;2.70;;
73382;SDS011;61600;48.126;11.542;2022-10-31T10:31:42;7.35;;;2.75;;
73382;SDS011;61600;48.126;11.542;2022-10-31T10:34:22;9.57;;;3.00;;
73382;SDS011;61600;48.126;11.542;2022-10-31T10:37:00;10.18;;;3.10;;
73382;SDS011;61600;48.126;11.542;2022-10-31T10:39:30;11.43;;;2.50;;
73382;SDS011;61600;48.126;11.542;2022-10-31T10:42:04;7.15;;;2.30;;
73382;SDS011;61600;48.126;11.542;2022-10-31T10:44:55;8.98;;;2.58;;
73382;SDS011;61600;48.126;11.542;2022-10-31T10:47:43;8.57;;;2.50;;
73382;SDS011;61600;48.126;11.542;2022-10-31T10:50:14;8.25;;;3.45;;
73382;SDS011;61600;48.126;11.542;2022-10-31T10:53:02;9.95;;;3.05;;
73382;SDS011;61600;48.126;11.542;2022-10-31T10:55:51;6.90;;;2.30;;
73382;SDS011;61600;48.126;11.542;2022-10-31T10:58:22;10.25;;;2.40;;
73382;SDS011;61600;48.126;11.542;2022-10-31T11:00:48;11.23;;;2.97;;
73382;SDS011;61600;48.126;11.542;2022-10-31T11:03:16;11.70;;;2.38;;
73382;SDS011;61600;48.126;11.542;2022-10-31T11:05:47;8.90;;;2.40;;
73382;SDS011;61600;48.126;11.542;2022-10-31T11:08:34;7.30;;;3.03;;
73382;SDS011;61600;48.126;11.542;2022-10-31T11:13:42;8.13;;;2.17;;
73382;SDS011;61600;48.126;11.542;2022-10-31T11:16:14;9.60;;;2.28;;
73382;SDS011;61600;48.126;11.542;2022-10-31T11:18:53;7.57;;;2.80;;
73382;SDS011;61600;48.126;11.542;2022-10-31T11:21:21;7.07;;;2.33;;
73382;SDS011;61600;48.126;11.542;2022-10-31T11:26:40;7.50;;;2.30;;
73382;SDS011;61600;48.126;11.542;2022-10-31T11:29:20;6.28;;;2.10;;
73382;SDS011;61600;48.126;11.542;2022-10-31T11:31:49;10.60;;;2.53;;
73382;SDS011;61600;48.126;11.542;2022-10-31T11:34:27;9.05;;;2.90;;
73382;SDS011;61600;48.126;11.542;2022-10-31T11:36:54;7.70;;;2.25;;
73382;SDS011;61600;48.126;11.542;2022-10-31T11:39:26;9.38;;;2.30;;
73382;SDS011;61600;48.126;11.542;2022-10-31T11:41:52;6.38;;;2.30;;
73382;SDS011;61600;48.126;11.542;2022-10-31T11:46:50;8.15;;;2.50;;
73382;SDS011;61600;48.126;11.542;2022-10-31T11:52:01;11.90;;;3.05;;
73382;SDS011;61600;48.126;11.542;2022-10-31T11:54:33;7.45;;;2.33;;
73382;SDS011;61600;48.126;11.542;2022-10-31T11:59:52;7.45;;;1.98;;
73382;SDS011;61600;48.126;11.542;2022-10-31T12:02:20;7.22;;;2.85;;
73382;SDS011;61600;48.126;11.542;2022-10-31T12:04:55;10.02;;;2.70;;
73382;SDS011;61600;48.126;11.542;2022-10-31T12:07:33;9.82;;;2.13;;
73382;SDS011;61600;48.126;11.542;2022-10-31T12:09:59;11.48;;;3.00;;
73382;SDS011;61600;48.126;11.542;2022-10-31T12:17:45;11.75;;;2.40;;
73382;SDS011;61600;48.126;11.542;2022-10-31T12:20:26;8.32;;;2.30;;
73382;SDS011;61600;48.126;11.542;2022-10-31T12:23:06;10.32;;;2.15;;
73382;SDS011;61600;48.126;11.542;2022-10-31T12:28:42;6.97;;;2.42;;
73382;SDS011;61600;48.126;11.542;2022-10-31T12:45:36;9.50;;;3.13;;
73382;SDS011;61600;48.126;11.542;2022-10-31T12:56:23;6.25;;;2.10;;
73382;SDS011;61600;48.126;11.542;2022-10-31T13:02:35;9.82;;;3.75;;
73382;SDS011;61600;48.126;11.542;2022-10-31T13:08:02;9.85;;;2.70;;
73382;SDS011;61600;48.126;11.542;2022-10-31T13:10:33;8.05;;;2.88;;
73382;SDS011;61600;48.126;11.542;2022-10-31T13:13:27;10.57;;;2.95;;
73382;SDS011;61600;48.126;11.542;2022-10-31T13:18:37;11.43;;;2.63;;
73382;SDS011;61600;48.126;11.542;2022-10-31T13:21:08;15.70;;;3.20;;
73382;SDS011;61600;48.126;11.542;2022-10-31T13:23:38;6.47;;;2.47;;
73382;SDS011;61600;48.126;11.542;2022-10-31T13:26:16;14.45;;;3.35;;
73382;SDS011;61600;48.126;11.542;2022-10-31T13:28:56;8.93;;;2.45;;
73382;SDS011;61600;48.126;11.542;2022-10-31T13:31:27;10.25;;;2.70;;
73382;SDS011;61600;48.126;11.542;2022-10-31T13:33:54;7.50;;;2.53;;
73382;SDS011;61600;48.126;11.542;2022-10-31T13:42:03;9.48;;;2.45;;
73382;SDS011;61600;48.126;11.542;2022-10-31T13:44:26;9.85;;;3.00;;
73382;SDS011;61600;48.126;11.542;2022-10-31T13:46:56;13.23;;;3.33;;
73382;SDS011;61600;48.126;11.542;2022-10-31T13:52:05;10.88;;;3.30;;
73382;SDS011;61600;48.126;11.542;2022-10-31T13:54:41;9.45;;;2.60;;
73382;SDS011;61600;48.126;11.542;2022-10-31T13:57:19;10.23;;;2.95;;
73382;SDS011;61600;48.126;11.542;2022-10-31T13:59:49;7.38;;;3.03;;
73382;SDS011;61600;48.126;11.542;2022-10-31T14:02:28;11.90;;;2.95;;
73382;SDS011;61600;48.126;11.542;2022-10-31T14:05:38;9.63;;;2.92;;
73382;SDS011;61600;48.126;11.542;2022-10-31T14:07:45;8.88;;;2.80;;
73382;SDS011;61600;48.126;11.542;2022-10-31T14:10:24;9.85;;;3.22;;
73382;SDS011;61600;48.126;11.542;2022-10-31T14:12:52;10.38;;;3.05;;
73382;SDS011;61600;48.126;11.542;2022-10-31T14:15:28;13.77;;;3.90;;
73382;SDS011;61600;48.126;11.542;2022-10-31T14:17:57;12.02;;;3.63;;
73382;SDS011;61600;48.126;11.542;2022-10-31T14:20:37;8.50;;;3.17;;
73382;SDS011;61600;48.126;11.542;2022-10-31T14:25:52;12.45;;;3.83;;
73382;SDS011;61600;48.126;11.542;2022-10-31T14:28:22;10.85;;;3.33;;
73382;SDS011;61600;48.126;11.542;2022-10-31T14:31:01;8.13;;;3.20;;
73382;SDS011;61600;48.126;11.542;2022-10-31T14:33:27;11.48;;;3.13;;
73382;SDS011;61600;48.126;11.542;2022-10-31T14:44:14;9.85;;;2.95;;
73382;SDS011;61600;48.126;11.542;2022-10-31T14:49:44;10.35;;;3.33;;
73382;SDS011;61600;48.126;11.542;2022-10-31T14:52:12;6.63;;;2.90;;
73382;SDS011;61600;48.126;11.542;2022-10-31T14:54:41;10.63;;;4.05;;
73382;SDS011;61600;48.126;11.542;2022-10-31T14:57:15;11.60;;;3.03;;
73382;SDS011;61600;48.126;11.542;2022-10-31T14:59:46;9.60;;;3.30;;
73382;SDS011;61600;48.126;11.542;2022-10-31T15:02:24;9.95;;;3.30;;
73382;SDS011;61600;48.126;11.542;2022-10-31T15:05:07;8.50;;;3.35;;
73382;SDS011;61600;48.126;11.542;2022-10-31T15:07:34;8.73;;;3.20;;
73382;SDS011;61600;48.126;11.542;2022-10-31T15:10:04;8.60;;;3.38;;
73382;SDS011;61600;48.126;11.542;2022-10-31T15:12:33;10.23;;;3.42;;
73382;SDS011;61600;48.126;11.542;2022-10-31T15:15:13;13.02;;;3.42;;
73382;SDS011;61600;48.126;11.542;2022-10-31T15:17:44;14.20;;;3.63;;
73382;SDS011;61600;48.126;11.542;2022-10-31T15:20:18;11.85;;;4.45;;
73382;SDS011;61600;48.126;11.542;2022-10-31T15:22:46;17.33;;;3.72;;
73382;SDS011;61600;48.126;11.542;2022-10-31T15:25:15;13.07;;;4.20;;
73382;SDS011;61600;48.126;11.542;2022-10-31T15:27:49;8.52;;;3.42;;
73382;SDS011;61600;48.126;11.542;2022-10-31T15:30:27;11.13;;;3.42;;
73382;SDS011;61600;48.126;11.542;2022-10-31T15:32:54;11.57;;;3.70;;
73382;SDS011;61600;48.126;11.542;2022-10-31T15:35:27;8.90;;;3.97;;
73382;SDS011;61600;48.126;11.542;2022-10-31T15:37:55;14.05;;;4.82;;
73382;SDS011;61600;48.126;11.542;2022-10-31T15:40:24;11.93;;;4.20;;
73382;SDS011;61600;48.126;11.542;2022-10-31T15:42:54;8.48;;;3.95;;
73382;SDS011;61600;48.126;11.542;2022-10-31T15:45:23;9.43;;;4.50;;
73382;SDS011;61600;48.126;11.542;2022-10-31T15:48:02;14.40;;;5.00;;
73382;SDS011;61600;48.126;11.542;2022-10-31T15:50:39;13.05;;;4.47;;
73382;SDS011;61600;48.126;11.542;2022-10-31T15:53:17;14.35;;;4.75;;
73382;SDS011;61600;48.126;11.542;2022-10-31T15:55:53;14.27;;;5.45;;
73382;SDS011;61600;48.126;11.542;2022-10-31T15:58:22;15.18;;;5.05;;
73382;SDS011;61600;48.126;11.542;2022-10-31T16:00:59;17.67;;;6.25;;
73382;SDS011;61600;48.126;11.542;2022-10-31T16:03:28;13.88;;;5.80;;
73382;SDS011;61600;48.126;11.542;2022-10-31T16:05:56;12.93;;;5.35;;
73382;SDS011;61600;48.126;11.542;2022-10-31T16:13:32;19.08;;;7.00;;
73382;SDS011;61600;48.126;11.542;2022-10-31T16:16:00;15.00;;;7.53;;
73382;SDS011;61600;48.126;11.542;2022-10-31T16:18:29;16.95;;;6.85;;
73382;SDS011;61600;48.126;11.542;2022-10-31T16:21:00;16.38;;;7.53;;
73382;SDS011;61600;48.126;11.542;2022-10-31T16:23:26;16.65;;;6.22;;
73382;SDS011;61600;48.126;11.542;2022-10-31T16:25:52;15.40;;;6.60;;
73382;SDS011;61600;48.126;11.542;2022-10-31T16:30:50;19.10;;;7.03;;
73382;SDS011;61600;48.126;11.542;2022-10-31T16:35:46;24.48;;;7.85;;
73382;SDS011;61600;48.126;11.542;2022-10-31T16:38:13;18.05;;;7.97;;
73382;SDS011;61600;48.126;11.542;2022-10-31T16:40:38;16.65;;;7.97;;
73382;SDS011;61600;48.126;11.542;2022-10-31T16:43:05;16.27;;;7.07;;
73382;SDS011;61600;48.126;11.542;2022-10-31T16:45:36;20.35;;;6.55;;
73382;SDS011;61600;48.126;11.542;2022-10-31T16:48:03;13.60;;;6.72;;
73382;SDS011;61600;48.126;11.542;2022-10-31T16:50:30;19.83;;;7.55;;
73382;SDS011;61600;48.126;11.542;2022-10-31T16:52:56;16.67;;;7.47;;
73382;SDS011;61600;48.126;11.542;2022-10-31T16:55:22;18.70;;;7.43;;
73382;SDS011;61600;48.126;11.542;2022-10-31T16:57:49;16.15;;;7.40;;
73382;SDS011;61600;48.126;11.542;2022-10-31T17:00:20;16.63;;;8.50;;
73382;SDS011;61600;48.126;11.542;2022-10-31T17:02:48;22.25;;;8.45;;
73382;SDS011;61600;48.126;11.542;2022-10-31T17:05:16;17.20;;;7.80;;
73382;SDS011;61600;48.126;11.542;2022-10-31T17:07:43;25.73;;;9.25;;
73382;SDS011;61600;48.126;11.542;2022-10-31T17:10:10;21.17;;;8.23;;
73382;SDS011;61600;48.126;11.542;2022-10-31T17:12:37;25.08;;;9.55;;
73382;SDS011;61600;48.126;11.542;2022-10-31T17:15:06;19.83;;;9.30;;
73382;SDS011;61600;48.126;11.542;2022-10-31T17:17:41;17.10;;;7.70;;
73382;SDS011;61600;48.126;11.542;2022-10-31T17:20:14;17.63;;;7.90;;
73382;SDS011;61600;48.126;11.542;2022-10-31T17:22:51;14.10;;;7.68;;